Terminal Aerodrome Forecast
Issued by NWS Anchorage, AK

Home | Current Version | Previous Version | Text Only | Print | Product List | Glossary On
Versions: 1 2 3 4 5 6 7 8 9 10 11 12 13 14 15 16 17 18 19
000
FTAK31 PANC 291126
TAFANC
TAF
PANC 291126Z 2912/3018 15012G22KT P6SM FEW070 BKN150
     FM292000 16015G25KT P6SM BKN060 BKN110
     FM300900 16007KT P6SM BKN110
     FM301200 05005KT P6SM BKN100=

USA.gov is the U.S. government's official web portal to all federal, state and local government web resources and services.